Time,TemperatureF,DewpointF,PressureIn,WindDirection,WindDirectionDegrees,WindSpeedMPH,WindSpeedGustMPH,Humidity,HourlyPrecipIn,Conditions,Clouds,dailyrainin,SoftwareType,DateUTC
2013-01-13 00:30:00,59.0,53.2,30.21,WSW,245,2.7,6.7,81,-99.99,,,0.00,VWS V14.01,2013-01-13 05:30:00,
2013-01-13 01:00:00,58.8,53.0,30.21,WNW,302,0.0,6.7,81,-99.99,,,0.00,VWS V14.01,2013-01-13 06:00:00,
2013-01-13 01:30:00,58.3,52.5,30.21,WSW,252,0.0,5.8,81,-99.99,,,0.00,VWS V14.01,2013-01-13 06:30:00,
2013-01-13 02:00:00,58.8,53.3,30.21,North,5,0.0,5.8,82,-99.99,,,0.00,VWS V14.01,2013-01-13 07:00:00,
2013-01-13 02:30:00,59.2,53.7,30.21,North,351,0.0,6.9,82,-99.99,,,0.00,VWS V14.01,2013-01-13 07:30:00,
2013-01-13 03:00:00,58.8,53.3,30.21,South,170,0.0,8.3,82,-99.99,,,0.00,VWS V14.01,2013-01-13 08:00:00,
2013-01-13 03:30:00,59.0,53.2,30.21,West,281,2.7,12.1,81,-99.99,,,0.00,VWS V14.01,2013-01-13 08:30:00,
2013-01-13 04:00:00,58.8,53.0,30.21,North,351,0.0,9.6,81,-99.99,,,0.00,VWS V14.01,2013-01-13 09:00:00,
2013-01-13 04:30:00,59.0,53.2,30.18,SSW,192,0.0,11.2,81,-99.99,,,0.00,VWS V14.01,2013-01-13 09:30:00,
2013-01-13 05:00:00,59.4,53.5,30.21,South,189,0.0,12.5,81,-99.99,,,0.00,VWS V14.01,2013-01-13 10:00:00,
2013-01-13 05:30:00,59.9,53.7,30.21,NE,42,8.3,14.3,80,-99.99,,,0.00,VWS V14.01,2013-01-13 10:30:00,
2013-01-13 06:00:00,60.1,54.2,30.21,WNW,290,0.0,12.1,81,-99.99,,,0.00,VWS V14.01,2013-01-13 11:00:00,
2013-01-13 06:30:00,59.7,53.9,30.24,SW,217,2.7,13.0,81,-99.99,,,0.00,VWS V14.01,2013-01-13 11:30:00,
2013-01-13 07:00:00,59.7,53.9,30.24,SE,141,4.5,11.6,81,-99.99,,,0.00,VWS V14.01,2013-01-13 12:00:00,
2013-01-13 07:30:00,59.4,53.2,30.24,ENE,75,5.8,8.7,80,-99.99,,,0.00,VWS V14.01,2013-01-13 12:30:00,
2013-01-13 08:00:00,59.4,53.2,30.27,South,170,6.9,12.5,80,-99.99,,,0.00,VWS V14.01,2013-01-13 13:00:00,
2013-01-13 08:30:00,59.5,53.4,30.27,SW,230,3.6,11.0,80,-99.99,,,0.00,VWS V14.01,2013-01-13 13:30:00,
2013-01-13 09:00:00,59.5,53.0,30.27,SSW,212,7.8,10.1,79,-99.99,,,0.00,VWS V14.01,2013-01-13 14:00:00,
2013-01-13 09:30:00,59.7,53.5,30.27,South,186,4.5,11.2,80,-99.99,,,0.00,VWS V14.01,2013-01-13 14:30:00,
2013-01-13 10:00:00,59.9,53.4,30.27,South,173,0.0,13.4,79,-99.99,,,0.00,VWS V14.01,2013-01-13 15:00:00,
2013-01-13 10:30:00,60.8,54.6,30.24,South,188,0.0,12.5,80,-99.99,,,0.00,VWS V14.01,2013-01-13 15:30:00,
2013-01-13 11:00:00,61.3,55.1,30.24,South,182,3.6,14.3,80,-99.99,,,0.00,VWS V14.01,2013-01-13 16:00:00,
2013-01-13 11:30:00,61.3,55.5,30.24,SE,129,4.9,11.6,81,-99.99,,,0.00,VWS V14.01,2013-01-13 16:30:00,
2013-01-13 12:00:00,61.7,55.8,30.24,South,179,0.0,10.1,81,-99.99,,,0.00,VWS V14.01,2013-01-13 17:00:00,
2013-01-13 12:30:00,62.6,56.7,30.21,South,174,2.7,10.5,81,-99.99,,,0.00,VWS V14.01,2013-01-13 17:30:00,
2013-01-13 13:00:00,63.0,56.3,30.21,SW,231,5.8,11.2,79,-99.99,,,0.00,VWS V14.01,2013-01-13 18:00:00,
2013-01-13 13:30:00,62.2,55.3,30.21,SE,133,4.0,12.5,78,-99.99,,,0.00,VWS V14.01,2013-01-13 18:30:00,
2013-01-13 14:00:00,61.9,55.0,30.21,SSW,202,4.0,13.9,78,-99.99,,,0.00,VWS V14.01,2013-01-13 19:00:00,
2013-01-13 14:30:00,62.8,56.2,30.21,SE,143,0.0,11.0,79,-99.99,,,0.00,VWS V14.01,2013-01-13 19:30:00,
2013-01-13 15:00:00,63.5,54.7,30.21,South,170,0.0,16.8,73,-99.99,,,0.00,VWS V14.01,2013-01-13 20:00:00,
2013-01-13 15:30:00,62.8,53.2,30.21,SSE,162,0.0,11.0,71,-99.99,,,0.00,VWS V14.01,2013-01-13 20:30:00,
2013-01-13 16:00:00,62.6,53.1,30.21,South,178,0.0,12.1,71,-99.99,,,0.00,VWS V14.01,2013-01-13 21:00:00,
2013-01-13 16:30:00,62.2,52.7,30.21,SE,146,7.4,13.0,71,-99.99,,,0.00,VWS V14.01,2013-01-13 21:30:00,
2013-01-13 17:00:00,62.6,53.1,30.18,ENE,63,9.2,12.1,71,-99.99,,,0.00,VWS V14.01,2013-01-13 22:00:00,
2013-01-13 17:30:00,62.2,52.0,30.18,WSW,255,4.0,11.0,69,-99.99,,,0.00,VWS V14.01,2013-01-13 22:30:00,
2013-01-13 18:00:00,62.1,51.8,30.18,NW,315,0.0,9.6,69,-99.99,,,0.00,VWS V14.01,2013-01-13 23:00:00,
2013-01-13 18:30:00,62.1,52.2,30.18,NNE,14,0.0,9.6,70,-99.99,,,0.00,VWS V14.01,2013-01-13 23:30:00,
2013-01-13 19:00:00,61.9,52.0,30.18,West,280,4.0,10.1,70,-99.99,,,0.00,VWS V14.01,2013-01-14 00:00:00,
2013-01-13 19:30:00,61.7,52.2,30.21,SSW,199,0.0,8.3,71,-99.99,,,0.00,VWS V14.01,2013-01-14 00:30:00,
2013-01-13 20:00:00,60.8,51.7,30.21,SE,128,0.0,6.9,72,-99.99,,,0.00,VWS V14.01,2013-01-14 01:00:00,
2013-01-13 20:30:00,60.6,53.4,30.21,South,172,9.2,9.2,77,-99.99,,,0.00,VWS V14.01,2013-01-14 01:30:00,
2013-01-13 21:00:00,60.1,53.6,30.21,NNE,25,0.0,9.2,79,-99.99,,,0.16,VWS V14.01,2013-01-14 02:00:00,
2013-01-13 21:30:00,59.7,54.6,30.18,NE,41,2.7,7.8,83,-99.99,,,0.28,VWS V14.01,2013-01-14 02:30:00,
2013-01-13 22:00:00,59.2,55.0,30.24,West,271,3.6,15.4,86,-99.99,,,0.71,VWS V14.01,2013-01-14 03:00:00,
2013-01-13 22:30:00,58.5,54.9,30.24,West,275,0.0,7.8,88,-99.99,,,0.87,VWS V14.01,2013-01-14 03:30:00,
2013-01-13 23:00:00,58.3,55.1,30.24,West,278,0.0,4.5,89,-99.99,,,0.94,VWS V14.01,2013-01-14 04:00:00,
2013-01-13 23:30:00,58.1,55.2,30.24,West,278,0.0,0.0,90,-99.99,,,1.02,VWS V14.01,2013-01-14 04:30:00,